FW1843 Weather Reports


Display with metric or nautical units.
time (UTC)temp
F
wind
direction
speed
MPH
gust
MPH
rain 1hr
in
rain 24hr
in
rain mn
in
humidity
%
barometer
mb
20240714223033 89 360 18.0 28.0 0.00 0.00 0.00 15 1006.8
20240714221535 88 360 20.0 27.0 0.00 0.00 0.00 16 1007.0
20240714220030 88 219 14.0 25.0 0.00 0.00 0.00 16 1007.1
20240714214528 88 360 13.0 22.0 0.00 0.00 0.00 15 1007.1
20240714213026 88 360 13.0 20.0 0.00 0.00 0.00 15 1007.3
20240714211524 89 360 5.0 13.0 0.00 0.00 0.00 15 1007.3
20240714210024 89 360 7.0 14.0 0.00 0.00 0.00 17 1007.5
20240714204523 89 228 9.0 18.0 0.00 0.00 0.00 15 1007.4
20240714203123 89 247 6.0 15.0 0.00 0.00 0.00 16 1007.6
20240714201610 89 360 10.0 19.0 0.00 0.00 0.00 15 1007.8
20240714200048 89 360 1.0 12.0 0.00 0.00 0.00 15 1007.9
20240714194520 89 360 3.0 6.0 0.00 0.00 0.00 15 1008.1
20240714193014 88 360 6.0 10.0 0.00 0.00 0.00 16 1008.4
20240714191510 87 360 5.0 12.0 0.00 0.00 0.00 19 1008.4
20240714190009 87 360 6.0 12.0 0.00 0.00 0.00 19 1008.6
20240714184505 86 360 10.0 16.0 0.00 0.00 0.00 19 1008.7
20240714183004 85 360 7.0 14.0 0.00 0.00 0.00 21 1008.9
20240714181602 84 360 6.0 14.0 0.00 0.00 0.00 21 1009.1
20240714180058 85 360 6.0 12.0 0.00 0.00 0.00 21 1009.3
20240714174558 84 360 2.0 10.0 0.00 0.00 0.00 24 1009.4
20240714173054 84 360 3.0 8.0 0.00 0.00 0.00 24 1009.5
20240714171550 83 360 5.0 11.0 0.00 0.00 0.00 23 1009.6
20240714170045 82 360 10.0 13.0 0.00 0.00 0.00 24 1009.8
20240714164541 81 360 5.0 10.0 0.00 0.00 0.00 27 1009.7
20240714163041 81 360 5.0 10.0 0.00 0.00 0.00 26 1009.5
20240714161536 81 360 5.0 9.0 0.00 0.00 0.00 27 1009.8
20240714160036 81 360 4.0 8.0 0.00 0.00 0.00 26 1010.1
20240714154535 81 360 0.0 4.0 0.00 0.00 0.00 27 1010.1
20240714153038 80 167 3.0 6.0 0.00 0.00 0.00 28 1010.2
20240714151531 78 167 2.0 5.0 0.00 0.00 0.00 29 1010.4
20240714150038 76 360 3.0 5.0 0.00 0.00 0.00 32 1010.5
20240714144519 75 360 3.0 6.0 0.00 0.00 0.00 34 1010.6
20240714143017 74 360 3.0 5.0 0.00 0.00 0.00 34 1010.7
20240714141642 72 360 3.0 7.0 0.00 0.00 0.00 34 1010.5
20240714140047 71 360 4.0 6.0 0.00 0.00 0.00 33 1010.5
20240714134543 70 360 2.0 5.0 0.00 0.00 0.00 35 1010.6
20240714133037 69 360 3.0 5.0 0.00 0.00 0.00 35 1010.3
20240714131536 68 360 3.0 5.0 0.00 0.00 0.00 34 1010.3
20240714130037 68 360 6.0 8.0 0.00 0.00 0.00 33 1010.2
20240714124533 68 360 4.0 8.0 0.00 0.00 0.00 33 1010.0
20240714123030 67 174 2.0 6.0 0.00 0.00 0.00 33 1009.8
20240714121533 67 360 0.0 3.0 0.00 0.00 0.00 33 1009.7
20240714120128 68 360 4.0 6.0 0.00 0.00 0.00 32 1009.6
20240714114557 68 360 2.0 4.0 0.00 0.00 0.00 31 1009.5
20240714113102 68 360 2.0 5.0 0.00 0.00 0.00 31 1009.6
20240714111557 68 360 4.0 8.0 0.00 0.00 0.00 31 1009.4
20240714110057 68 360 4.0 6.0 0.00 0.00 0.00 32 1009.5
20240714104552 68 360 5.0 8.0 0.00 0.00 0.00 32 1009.5
20240714103055 69 360 3.0 8.0 0.00 0.00 0.00 31 1009.3
20240714101545 69 360 5.0 10.0 0.00 0.00 0.00 31 1009.3
20240714100050 70 360 5.0 9.0 0.00 0.00 0.00 31 1009.3
20240714094543 70 360 2.0 9.0 0.00 0.00 0.00 31 1009.2
20240714093042 70 360 8.0 10.0 0.00 0.00 0.00 31 1009.1
20240714091539 70 360 7.0 9.0 0.00 0.00 0.00 31 1009.2
20240714090042 70 360 4.0 8.0 0.00 0.00 0.00 32 1009.2
20240714084607 70 360 7.0 9.0 0.00 0.00 0.00 32 1009.3
20240714083036 70 360 3.0 8.0 0.00 0.00 0.00 33 1009.3
20240714081533 69 360 3.0 5.0 0.00 0.00 0.00 35 1009.3
20240714080033 69 360 3.0 6.0 0.00 0.00 0.00 35 1009.5
20240714074533 69 360 3.0 8.0 0.00 0.00 0.00 38 1009.6
20240714073029 70 138 4.0 8.0 0.00 0.00 0.00 38 1009.5
20240714071526 71 360 5.0 9.0 0.00 0.00 0.00 37 1009.5
20240714070125 70 360 3.0 6.0 0.00 0.00 0.00 38 1009.4
20240714064522 71 360 3.0 6.0 0.00 0.00 0.00 38 1009.6
20240714063019 72 360 2.0 8.0 0.00 0.00 0.00 37 1009.4
20240714061517 72 360 3.0 6.0 0.00 0.00 0.00 37 1009.4
20240714060133 73 360 3.0 6.0 0.00 0.00 0.00 36 1009.3
20240714054516 73 360 2.0 8.0 0.00 0.00 0.00 36 1009.3
20240714053012 75 360 4.0 9.0 0.00 0.00 0.00 36 1009.3
20240714051511 77 360 3.0 5.0 0.00 0.00 0.00 31 1009.2
20240714050009 78 360 3.0 6.0 0.00 0.00 0.00 30 1009.4
20240714044509 78 112 3.0 6.0 0.00 0.00 0.00 30 1009.3
20240714043007 77 103 2.0 5.0 0.00 0.00 0.00 31 1009.5
20240714041508 77 360 5.0 9.0 0.00 0.00 0.00 32 1009.4
20240714040004 77 83 6.0 9.0 0.00 0.00 0.00 32 1009.4
20240714034507 77 360 4.0 8.0 0.00 0.00 0.00 33 1009.2
20240714033001 78 360 4.0 8.0 0.00 0.00 0.00 34 1009.0
20240714031500 78 360 6.0 10.0 0.00 0.00 0.00 32 1009.0
20240714030106 79 360 7.0 10.0 0.00 0.00 0.00 31 1008.8
20240714024604 81 360 4.0 6.0 0.00 0.00 0.00 31 1008.7
20240714023057 83 360 4.0 8.0 0.00 0.00 0.00 29 1008.7
20240714021609 86 360 6.0 11.0 0.00 0.00 0.00 27 1008.6
20240714020058 88 360 2.0 5.0 0.00 0.00 0.00 25 1008.6
20240714014555 88 360 3.0 5.0 0.00 0.00 0.00 22 1008.7
20240714013051 88 360 3.0 9.0 0.00 0.00 0.00 21 1008.7
20240714011549 89 53 4.0 9.0 0.00 0.00 0.00 22 1008.8
20240714010048 89 63 3.0 9.0 0.00 0.00 0.00 21 1008.8
20240714004546 89 360 7.0 11.0 0.00 0.00 0.00 20 1008.9
20240714003059 90 360 2.0 9.0 0.00 0.00 0.00 19 1009.0
20240714001540 91 360 5.0 14.0 0.00 0.00 0.00 19 1009.0
20240714000057 91 360 4.0 8.0 0.00 0.00 0.00 20 1009.0
20240713234537 89 360 3.0 9.0 0.00 0.00 0.00 20 1009.3
20240713233033 90 35 6.0 11.0 0.00 0.00 0.00 20 1009.3
20240713231543 89 360 2.0 12.0 0.00 0.00 0.00 22 1009.4
20240713230032 89 360 4.0 9.0 0.00 0.00 0.00 22 1009.6
20240713224533 88 360 11.0 16.0 0.00 0.00 0.00 23 1009.7